Time;durP1;ratioP1;P1;durP2;ratioP2;P2;SDS_P1;SDS_P2;PMS_P1;PMS_P2;Temp;Humidity;BMP_temperature;BMP_pressure;BME280_temperature;BME280_humidity;BME280_pressure;Samples;Min_cycle;Max_cycle;Signal;HPM_P1;HPM_P2
2021/05/17 00:00:38;;;;;;;8.88;1.70;;;11.30;99.90;;;;;;4998987;28;20053;-66
2021/05/17 00:03:05;;;;;;;5.22;1.58;;;11.20;99.90;;;;;;5001714;28;20116;-66
2021/05/17 00:05:33;;;;;;;4.28;1.60;;;11.10;99.90;;;;;;5002495;28;20073;-65
2021/05/17 00:07:59;;;;;;;8.60;1.70;;;11.10;99.90;;;;;;5000193;28;20045;-65
2021/05/17 00:10:27;;;;;;;3.83;1.33;;;11.10;99.90;;;;;;5002643;28;20678;-66
2021/05/17 00:12:54;;;;;;;5.10;1.60;;;10.90;99.90;;;;;;5004039;28;20745;-65
2021/05/17 00:15:22;;;;;;;3.65;1.55;;;10.90;99.90;;;;;;5001706;28;20049;-66
2021/05/17 00:17:51;;;;;;;5.18;1.70;;;10.80;99.90;;;;;;4998041;28;20057;-66
2021/05/17 00:20:19;;;;;;;6.72;1.80;;;10.80;99.90;;;;;;5000186;28;20056;-65
2021/05/17 00:22:46;;;;;;;6.53;1.45;;;10.80;99.90;;;;;;5000308;28;20505;-65
2021/05/17 00:25:14;;;;;;;4.40;1.75;;;10.90;99.90;;;;;;5000433;28;20088;-65
2021/05/17 00:27:41;;;;;;;4.30;1.40;;;10.90;99.90;;;;;;4997601;28;20048;-65
2021/05/17 00:30:09;;;;;;;3.83;1.42;;;10.90;99.90;;;;;;5001470;28;20085;-66
2021/05/17 00:32:36;;;;;;;3.38;1.63;;;10.90;99.90;;;;;;5000205;28;20053;-66
2021/05/17 00:35:06;;;;;;;3.45;1.60;;;10.80;99.90;;;;;;5002823;28;20134;-66
2021/05/17 00:37:32;;;;;;;4.53;1.38;;;10.70;99.90;;;;;;4999110;28;20564;-66
2021/05/17 00:39:59;;;;;;;6.55;1.63;;;10.80;99.90;;;;;;4998508;28;20046;-65
2021/05/17 00:42:26;;;;;;;4.82;1.80;;;10.90;99.90;;;;;;5002987;28;20076;-66
2021/05/17 00:44:53;;;;;;;5.82;1.60;;;10.80;99.90;;;;;;5001413;28;20106;-65
2021/05/17 00:47:20;;;;;;;3.65;1.10;;;10.80;99.90;;;;;;4999583;28;20049;-66
2021/05/17 00:49:47;;;;;;;3.85;1.52;;;10.80;99.90;;;;;;5000839;28;20476;-66
2021/05/17 00:52:17;;;;;;;4.78;1.55;;;10.80;99.90;;;;;;5000614;28;20049;-66
2021/05/17 00:54:45;;;;;;;4.15;1.50;;;10.80;99.90;;;;;;5001672;28;20057;-65
2021/05/17 00:57:13;;;;;;;3.28;1.00;;;10.80;99.90;;;;;;5000536;28;20064;-65
2021/05/17 00:59:39;;;;;;;2.83;1.10;;;10.90;99.90;;;;;;5001450;28;20331;-65
2021/05/17 01:02:06;;;;;;;3.35;1.35;;;10.90;99.90;;;;;;5002115;28;20048;-65
2021/05/17 01:04:32;;;;;;;4.13;1.00;;;11.00;99.90;;;;;;5000672;28;20057;-65
2021/05/17 01:06:59;;;;;;;;;;;11.00;99.90;;;;;;5001559;28;20559;-66
2021/05/17 01:09:28;;;;;;;1.75;1.10;;;10.80;99.90;;;;;;5000084;28;19935;-66
2021/05/17 01:11:57;;;;;;;5.53;1.50;;;10.90;99.90;;;;;;4999546;28;20049;-66
2021/05/17 01:14:24;;;;;;;2.22;1.35;;;10.80;99.90;;;;;;5002848;28;20690;-65
2021/05/17 01:16:54;;;;;;;3.72;1.45;;;10.80;99.90;;;;;;5001424;28;20049;-65
2021/05/17 01:19:28;;;;;;;5.60;1.90;;;10.80;99.90;;;;;;5001420;28;20508;-66
2021/05/17 01:21:57;;;;;;;4.75;1.48;;;10.80;99.90;;;;;;4999880;28;20060;-66
2021/05/17 01:24:26;;;;;;;4.10;1.60;;;10.80;99.90;;;;;;5003832;28;20057;-65
2021/05/17 01:26:54;;;;;;;8.60;1.80;;;10.90;99.90;;;;;;4998115;28;20045;-66
2021/05/17 01:29:21;;;;;;;4.45;1.25;;;10.90;99.90;;;;;;5002946;28;20795;-65
2021/05/17 01:31:48;;;;;;;3.17;1.15;;;10.90;99.90;;;;;;5001438;28;20057;-66
2021/05/17 01:34:15;;;;;;;5.70;1.40;;;10.80;99.90;;;;;;5003151;28;20045;-65
2021/05/17 01:36:44;;;;;;;2.92;1.27;;;10.90;99.90;;;;;;5002372;28;20459;-65
2021/05/17 01:39:14;;;;;;;3.53;1.38;;;10.90;99.90;;;;;;4999551;28;20049;-65
2021/05/17 01:41:42;;;;;;;2.60;1.00;;;10.90;99.90;;;;;;5005155;28;20072;-65
2021/05/17 01:44:12;;;;;;;5.40;1.35;;;10.90;99.90;;;;;;5003589;28;20056;-66
2021/05/17 01:46:40;;;;;;;8.15;1.40;;;11.00;99.90;;;;;;5003809;28;20065;-65
2021/05/17 01:49:13;;;;;;;2.40;1.30;;;10.80;99.90;;;;;;5002470;28;20049;-65
2021/05/17 01:51:44;;;;;;;3.45;1.15;;;10.80;99.90;;;;;;5005522;28;20057;-65
2021/05/17 01:54:11;;;;;;;3.08;1.10;;;10.70;99.90;;;;;;5005757;28;20049;-65
2021/05/17 01:56:39;;;;;;;1.83;0.82;;;10.70;99.90;;;;;;5004560;28;20531;-65
2021/05/17 01:59:07;;;;;;;3.85;1.00;;;10.70;99.90;;;;;;5002818;28;20045;-65
2021/05/17 02:01:34;;;;;;;5.32;1.02;;;10.60;99.90;;;;;;5005384;28;20132;-65
2021/05/17 02:04:01;;;;;;;3.38;0.90;;;10.50;99.90;;;;;;5006196;28;20681;-65
2021/05/17 02:06:28;;;;;;;2.97;1.02;;;10.50;99.90;;;;;;5005877;28;20063;-65
2021/05/17 02:08:55;;;;;;;3.03;0.98;;;10.50;99.90;;;;;;5003795;28;20041;-65
2021/05/17 02:11:23;;;;;;;0.88;0.70;;;10.50;99.90;;;;;;5004732;28;20083;-65
2021/05/17 02:13:50;;;;;;;1.40;1.10;;;10.50;99.90;;;;;;5003351;28;20088;-65
2021/05/17 02:16:17;;;;;;;3.35;0.98;;;10.50;99.90;;;;;;5004356;28;20114;-66
2021/05/17 02:18:45;;;;;;;2.05;1.05;;;10.40;99.90;;;;;;5002050;28;20100;-65
2021/05/17 02:21:14;;;;;;;2.58;0.90;;;10.40;99.90;;;;;;5003839;28;20064;-65
2021/05/17 02:23:41;;;;;;;2.85;1.13;;;10.30;99.90;;;;;;5004972;28;20060;-65
2021/05/17 02:26:08;;;;;;;4.32;1.10;;;10.40;99.90;;;;;;5005059;28;20456;-66
2021/05/17 02:28:37;;;;;;;4.72;1.02;;;10.40;99.90;;;;;;5001773;28;20052;-65
2021/05/17 02:31:04;;;;;;;4.50;1.15;;;10.30;99.90;;;;;;5002493;28;20080;-65
2021/05/17 02:33:34;;;;;;;4.65;1.10;;;10.30;99.90;;;;;;5005207;28;20060;-65
2021/05/17 02:36:00;;;;;;;4.05;0.90;;;10.30;99.90;;;;;;5006570;28;20559;-66
2021/05/17 02:38:27;;;;;;;3.05;1.33;;;10.30;99.90;;;;;;5002296;28;20053;-65
2021/05/17 02:40:56;;;;;;;1.35;1.10;;;10.30;99.90;;;;;;5006965;28;20069;-66
2021/05/17 02:43:24;;;;;;;2.25;1.10;;;10.40;99.90;;;;;;5006558;28;20045;-66
2021/05/17 02:45:51;;;;;;;4.65;1.33;;;10.30;99.90;;;;;;5003601;28;20216;-65
2021/05/17 02:48:25;;;;;;;4.38;1.40;;;10.50;99.90;;;;;;5001557;28;20080;-65
2021/05/17 02:50:53;;;;;;;2.58;1.20;;;10.50;99.90;;;;;;5005805;28;20061;-65
2021/05/17 02:53:45;;;;;;;2.55;1.17;;;10.50;99.90;;;;;;5007487;28;20390;-66
2021/05/17 02:56:13;;;;;;;2.67;1.10;;;10.50;99.90;;;;;;5003870;28;20045;-65
2021/05/17 02:58:42;;;;;;;2.97;1.35;;;10.50;99.90;;;;;;5002033;28;20457;-65
2021/05/17 03:01:10;;;;;;;2.42;1.20;;;10.50;99.90;;;;;;5005217;28;20076;-66
2021/05/17 03:03:43;;;;;;;1.70;1.05;;;10.60;99.90;;;;;;5003618;28;20087;-65
2021/05/17 03:06:18;;;;;;;1.65;1.13;;;10.60;99.90;;;;;;5004555;28;20556;-65
2021/05/17 03:08:50;;;;;;;3.63;1.30;;;10.50;99.90;;;;;;4999991;28;20525;-65
2021/05/17 03:11:22;;;;;;;4.28;1.30;;;10.50;99.90;;;;;;5004318;28;20049;-65
2021/05/17 03:13:51;;;;;;;3.45;1.30;;;10.50;99.90;;;;;;5005001;28;20064;-65
2021/05/17 03:16:19;;;;;;;3.38;1.40;;;10.50;99.90;;;;;;5005368;28;20042;-66
2021/05/17 03:18:47;;;;;;;2.60;1.20;;;10.50;99.90;;;;;;5002254;28;20053;-65
2021/05/17 03:21:16;;;;;;;4.45;1.20;;;10.50;99.90;;;;;;5003010;28;20112;-65
2021/05/17 03:23:43;;;;;;;2.55;1.33;;;10.50;99.90;;;;;;5003049;28;20053;-65
2021/05/17 03:26:10;;;;;;;3.15;1.35;;;10.60;99.90;;;;;;5006557;28;20057;-65
2021/05/17 03:28:37;;;;;;;3.55;1.30;;;10.60;99.90;;;;;;5001263;28;20061;-65
2021/05/17 03:31:03;;;;;;;;;;;10.60;99.90;;;;;;5004455;28;20052;-66
2021/05/17 03:33:29;;;;;;;2.42;1.35;;;10.60;99.90;;;;;;5004813;28;20019;-66
2021/05/17 03:35:56;;;;;;;;;;;10.60;99.90;;;;;;5003419;28;20703;-65
2021/05/17 03:38:23;;;;;;;4.53;1.40;;;10.50;99.90;;;;;;5003094;28;19925;-66
2021/05/17 03:40:49;;;;;;;5.03;1.20;;;10.60;99.90;;;;;;5005243;28;20096;-65
2021/05/17 03:43:16;;;;;;;6.22;1.35;;;10.60;99.90;;;;;;5004959;28;20049;-66
2021/05/17 03:45:42;;;;;;;1.48;1.00;;;10.60;99.90;;;;;;5003729;28;20123;-66
2021/05/17 03:48:09;;;;;;;;;;;10.80;99.90;;;;;;5004216;28;20397;-66
2021/05/17 03:50:35;;;;;;;2.67;1.10;;;10.80;99.90;;;;;;5004038;28;20308;-66
2021/05/17 03:53:02;;;;;;;;;;;10.90;99.90;;;;;;5003153;28;20077;-66
2021/05/17 03:55:29;;;;;;;1.40;0.90;;;10.80;99.90;;;;;;5003671;28;19932;-66
2021/05/17 03:57:58;;;;;;;1.42;0.90;;;10.80;99.90;;;;;;5001782;28;20056;-65
2021/05/17 04:00:27;;;;;;;2.58;1.20;;;10.90;99.90;;;;;;5004364;28;20053;-65
2021/05/17 04:02:53;;;;;;;2.55;1.10;;;10.80;99.90;;;;;;5004236;28;20216;-65
2021/05/17 04:05:32;;;;;;;6.10;1.17;;;10.80;99.90;;;;;;5003370;28;20493;-66
2021/05/17 04:08:25;;;;;;;2.67;1.05;;;10.80;99.90;;;;;;5003023;28;20072;-66
2021/05/17 04:13:37;;;;;;;3.17;1.17;;;10.90;99.90;;;;;;5004314;28;20894;-65
2021/05/17 04:16:04;;;;;;;2.83;1.05;;;10.90;99.90;;;;;;5002595;28;20053;-65
2021/05/17 04:18:30;;;;;;;2.67;0.90;;;10.90;99.90;;;;;;5002779;28;20053;-65
2021/05/17 04:20:57;;;;;;;;;;;10.90;99.90;;;;;;5004044;28;20088;-66
2021/05/17 04:23:26;;;;;;;3.63;1.20;;;10.90;99.90;;;;;;5004067;28;19920;-65
2021/05/17 04:25:53;;;;;;;4.50;1.40;;;11.00;99.90;;;;;;5002145;28;20049;-66
2021/05/17 04:28:20;;;;;;;2.55;1.05;;;11.00;99.90;;;;;;5001377;28;20486;-65
2021/05/17 04:30:47;;;;;;;4.57;1.27;;;10.90;99.90;;;;;;5006240;28;20057;-65
2021/05/17 04:33:13;;;;;;;2.92;1.20;;;11.00;99.90;;;;;;5006822;28;20053;-65
2021/05/17 04:35:40;;;;;;;2.28;1.20;;;11.00;99.90;;;;;;5004675;28;20058;-66
2021/05/17 04:38:06;;;;;;;2.30;1.10;;;11.10;99.90;;;;;;5002539;28;20583;-65
2021/05/17 04:40:33;;;;;;;;;;;11.10;99.90;;;;;;5004774;28;20080;-66
2021/05/17 04:43:00;;;;;;;3.42;1.35;;;11.20;99.90;;;;;;5005709;28;19932;-66
2021/05/17 04:45:26;;;;;;;3.10;1.05;;;11.20;99.90;;;;;;5005717;28;20049;-65
2021/05/17 04:47:53;;;;;;;2.03;0.90;;;11.30;99.90;;;;;;5004030;28;20049;-65
2021/05/17 04:50:21;;;;;;;2.72;1.00;;;11.40;99.90;;;;;;5008024;28;20076;-65
2021/05/17 04:52:47;;;;;;;2.40;1.05;;;11.40;99.90;;;;;;5003065;28;20115;-66
2021/05/17 04:55:14;;;;;;;3.85;1.10;;;11.50;99.90;;;;;;5004360;28;20084;-66
2021/05/17 04:57:41;;;;;;;6.47;1.45;;;11.50;99.90;;;;;;5001856;28;20044;-65
2021/05/17 05:00:09;;;;;;;;;;;11.50;99.90;;;;;;4996898;28;20130;-65
2021/05/17 05:02:36;;;;;;;4.70;1.58;;;11.60;99.90;;;;;;4996503;28;19994;-65
2021/05/17 05:05:03;;;;;;;3.75;1.35;;;11.50;99.90;;;;;;5003819;28;20049;-65
2021/05/17 05:07:29;;;;;;;4.93;1.30;;;11.30;99.90;;;;;;4996920;28;20940;-65
2021/05/17 05:09:56;;;;;;;3.50;1.75;;;11.10;99.90;;;;;;5000824;28;20056;-66
2021/05/17 05:12:22;;;;;;;;;;;11.10;99.90;;;;;;5003837;28;20049;-65
2021/05/17 05:14:48;;;;;;;6.88;1.95;;;11.00;99.90;;;;;;5005948;28;20404;-66
2021/05/17 05:17:16;;;;;;;5.18;1.55;;;11.00;99.90;;;;;;5005879;28;20044;-65
2021/05/17 05:19:42;;;;;;;3.72;1.50;;;11.10;99.90;;;;;;5004651;28;20560;-67
2021/05/17 05:22:09;;;;;;;;;;;11.10;99.90;;;;;;5002757;28;20053;-68
2021/05/17 05:24:35;;;;;;;4.40;1.52;;;11.00;99.90;;;;;;5007818;28;20460;-66
2021/05/17 05:27:09;;;;;;;;;;;11.10;99.90;;;;;;5007535;28;20087;-65
2021/05/17 05:29:46;;;;;;;4.85;1.80;;;11.10;99.90;;;;;;5006849;28;20305;-66
2021/05/17 05:32:23;;;;;;;5.53;1.80;;;11.20;99.90;;;;;;5001114;28;20501;-65
2021/05/17 05:34:51;;;;;;;5.25;1.80;;;11.10;99.90;;;;;;5005928;28;20072;-68
2021/05/17 05:37:17;;;;;;;3.88;1.85;;;11.10;99.90;;;;;;5005177;28;21255;-68
2021/05/17 05:39:44;;;;;;;;;;;11.10;99.90;;;;;;5002445;28;20060;-65
2021/05/17 05:42:11;;;;;;;5.72;1.80;;;11.10;99.90;;;;;;5007353;28;19925;-66
2021/05/17 05:44:43;;;;;;;4.32;1.70;;;11.10;99.90;;;;;;5016173;28;20093;-66
2021/05/17 05:47:14;;;;;;;5.97;2.10;;;11.00;99.90;;;;;;5013701;28;20419;-65
2021/05/17 05:49:40;;;;;;;5.72;1.92;;;11.00;99.90;;;;;;5016916;28;20581;-66
2021/05/17 05:52:08;;;;;;;4.40;1.58;;;11.00;99.90;;;;;;5016040;28;20276;-66
2021/05/17 05:54:40;;;;;;;8.55;2.53;;;10.90;99.90;;;;;;5015313;28;20045;-65
2021/05/17 05:57:08;;;;;;;5.32;1.50;;;11.00;99.90;;;;;;5023325;28;20054;-66
2021/05/17 05:59:35;;;;;;;6.65;1.70;;;11.10;99.90;;;;;;5016284;28;20452;-66
2021/05/17 06:02:01;;;;;;;4.20;1.70;;;11.30;99.90;;;;;;5017582;28;20458;-66
2021/05/17 06:04:28;;;;;;;5.28;1.70;;;11.30;99.90;;;;;;5017468;28;20091;-67
2021/05/17 06:06:54;;;;;;;;;;;11.50;99.90;;;;;;5018917;28;20291;-66
2021/05/17 06:09:22;;;;;;;6.72;1.73;;;11.60;99.90;;;;;;5018105;28;19925;-66
2021/05/17 06:11:49;;;;;;;2.95;1.23;;;11.60;99.90;;;;;;5018516;28;20420;-66
2021/05/17 06:14:15;;;;;;;5.80;1.50;;;11.60;99.90;;;;;;5018105;28;20049;-66
2021/05/17 06:16:42;;;;;;;2.67;1.33;;;11.50;99.90;;;;;;5018883;28;20057;-66
2021/05/17 06:19:10;;;;;;;9.43;1.77;;;11.60;99.90;;;;;;5019572;28;20440;-66
2021/05/17 06:21:37;;;;;;;7.63;1.45;;;11.60;99.90;;;;;;5019469;28;20123;-66
2021/05/17 06:24:05;;;;;;;11.68;1.60;;;11.70;99.90;;;;;;5021962;28;20480;-66
2021/05/17 06:26:33;;;;;;;6.03;1.33;;;11.70;99.90;;;;;;5014873;28;20398;-66
2021/05/17 06:29:00;;;;;;;4.50;1.80;;;11.80;99.90;;;;;;5016510;28;20475;-66
2021/05/17 06:31:27;;;;;;;5.10;1.17;;;11.90;99.90;;;;;;5016498;28;20080;-66
2021/05/17 06:33:54;;;;;;;2.17;0.98;;;11.80;99.90;;;;;;5018109;28;20157;-66
2021/05/17 06:36:21;;;;;;;2.97;1.05;;;11.90;99.90;;;;;;5018360;28;20057;-66
2021/05/17 06:38:48;;;;;;;;;;;11.90;99.90;;;;;;5018410;28;20140;-66
2021/05/17 06:41:14;;;;;;;2.00;1.00;;;11.90;99.90;;;;;;5017712;28;20305;-66
2021/05/17 06:43:42;;;;;;;;;;;11.90;99.90;;;;;;5020312;28;20162;-67
2021/05/17 06:46:09;;;;;;;;;;;11.90;99.90;;;;;;5016692;28;20020;-67
2021/05/17 06:48:42;;;;;;;6.57;1.08;;;12.00;99.90;;;;;;5015505;28;19929;-66
2021/05/17 06:51:12;;;;;;;7.25;1.10;;;12.00;99.90;;;;;;5017224;28;20081;-66
2021/05/17 06:53:40;;;;;;;1.92;1.10;;;12.00;99.90;;;;;;5016413;28;20057;-67
2021/05/17 06:56:09;;;;;;;3.05;0.80;;;12.10;99.90;;;;;;5016950;28;20106;-67
2021/05/17 06:58:45;;;;;;;3.05;1.00;;;12.20;99.90;;;;;;5013463;28;20452;-66
2021/05/17 07:01:13;;;;;;;3.03;0.83;;;12.20;99.90;;;;;;5016325;28;20568;-67
2021/05/17 07:03:40;;;;;;;1.90;0.57;;;12.20;99.90;;;;;;5016933;28;20295;-66
2021/05/17 07:06:09;;;;;;;2.75;0.77;;;12.10;99.90;;;;;;5017689;28;20331;-66
2021/05/17 07:11:38;;;;;;;1.58;0.70;;;11.90;99.90;;;;;;4974346;28;20081;-67
2021/05/17 07:14:05;;;;;;;4.93;0.85;;;12.10;99.90;;;;;;5010422;28;20513;-66
2021/05/17 07:16:33;;;;;;;;;;;12.30;99.90;;;;;;5017193;28;20073;-67
2021/05/17 07:18:59;;;;;;;4.40;0.80;;;12.30;99.90;;;;;;5008302;28;19972;-66
2021/05/17 07:24:16;;;;;;;4.40;1.25;;;12.40;99.90;;;;;;4975947;28;20038;-66
2021/05/17 07:26:42;;;;;;;;;;;12.40;99.90;;;;;;5014010;28;20140;-66
2021/05/17 07:29:11;;;;;;;2.03;0.70;;;12.10;99.90;;;;;;5013341;28;20140;-67
2021/05/17 07:31:38;;;;;;;1.15;0.73;;;12.10;99.90;;;;;;5015491;28;20108;-67
2021/05/17 07:34:05;;;;;;;2.70;0.80;;;12.20;99.90;;;;;;5015937;28;20064;-66
2021/05/17 07:36:32;;;;;;;3.00;0.70;;;12.30;99.90;;;;;;5015242;28;20084;-67
2021/05/17 07:38:58;;;;;;;1.38;0.73;;;11.90;99.90;;;;;;5011872;28;20060;-67
2021/05/17 07:41:25;;;;;;;4.75;0.80;;;11.90;99.90;;;;;;5017029;28;21145;-67
2021/05/17 07:43:52;;;;;;;0.70;0.57;;;11.80;99.90;;;;;;5014837;28;20077;-66
2021/05/17 07:46:18;;;;;;;2.63;0.80;;;11.60;99.90;;;;;;5014530;28;20092;-67
2021/05/17 07:51:30;;;;;;;2.30;0.93;;;11.30;99.90;;;;;;5015580;28;20103;-66
2021/05/17 07:53:57;;;;;;;1.77;0.93;;;11.30;99.90;;;;;;5015229;28;20194;-68
2021/05/17 07:56:24;;;;;;;2.25;0.80;;;11.20;99.90;;;;;;5015203;28;20133;-66
2021/05/17 07:58:51;;;;;;;2.78;1.20;;;11.00;99.90;;;;;;5014867;28;20103;-66
2021/05/17 08:01:18;;;;;;;2.90;0.80;;;11.00;99.90;;;;;;5016638;28;20060;-67
2021/05/17 08:03:45;;;;;;;2.03;0.82;;;11.10;99.90;;;;;;5015476;28;20107;-66
2021/05/17 08:06:12;;;;;;;5.57;0.95;;;11.10;99.90;;;;;;5014566;28;20131;-66
2021/05/17 08:08:39;;;;;;;1.90;0.90;;;11.20;99.90;;;;;;5011299;28;20053;-67
2021/05/17 08:11:05;;;;;;;4.53;0.80;;;11.50;99.90;;;;;;5017224;28;20069;-66
2021/05/17 08:13:32;;;;;;;1.55;0.90;;;11.70;99.90;;;;;;5014814;28;20053;-66
2021/05/17 08:15:58;;;;;;;;;;;12.00;99.90;;;;;;5013438;28;20528;-66
2021/05/17 08:18:24;;;;;;;1.65;0.90;;;12.00;99.90;;;;;;5015768;28;19960;-67
2021/05/17 08:20:51;;;;;;;;;;;12.20;99.90;;;;;;5015958;28;20482;-67
2021/05/17 08:23:18;;;;;;;2.75;0.90;;;12.50;99.90;;;;;;5014968;28;20311;-66
2021/05/17 08:25:46;;;;;;;2.20;1.00;;;12.70;99.90;;;;;;5014490;28;20498;-67
2021/05/17 08:28:13;;;;;;;2.80;0.90;;;13.30;99.90;;;;;;5014420;28;20056;-66
2021/05/17 08:30:42;;;;;;;1.02;0.60;;;14.00;99.90;;;;;;5014763;28;20814;-67
2021/05/17 08:33:09;;;;;;;2.35;0.70;;;14.00;99.90;;;;;;5016711;28;20453;-67
2021/05/17 08:35:36;;;;;;;7.22;1.20;;;13.60;99.90;;;;;;5011666;28;20482;-67
2021/05/17 08:38:04;;;;;;;2.92;0.93;;;13.00;99.90;;;;;;5014649;28;20433;-67
2021/05/17 08:40:34;;;;;;;4.45;0.95;;;12.60;99.90;;;;;;5014164;28;20083;-66
2021/05/17 08:43:01;;;;;;;1.33;0.65;;;12.10;99.90;;;;;;5013286;28;20080;-66
2021/05/17 08:45:28;;;;;;;6.78;1.92;;;11.60;99.90;;;;;;5010901;28;20053;-66
2021/05/17 08:47:55;;;;;;;5.25;1.38;;;11.60;99.90;;;;;;5016538;28;20049;-66
2021/05/17 08:50:22;;;;;;;1.20;0.80;;;11.50;99.90;;;;;;5012449;28;20411;-67
2021/05/17 08:52:49;;;;;;;1.10;0.60;;;11.60;99.90;;;;;;5015459;28;20586;-67
2021/05/17 08:55:17;;;;;;;3.58;1.52;;;11.70;99.90;;;;;;5014651;28;20051;-66
2021/05/17 08:57:44;;;;;;;2.90;0.80;;;11.70;99.90;;;;;;5009847;28;20088;-67
2021/05/17 09:00:13;;;;;;;0.98;0.50;;;11.60;99.90;;;;;;5011891;28;20607;-67
2021/05/17 09:02:40;;;;;;;2.33;0.60;;;11.80;99.90;;;;;;5014263;28;20594;-67
2021/05/17 09:05:15;;;;;;;0.82;0.60;;;12.00;99.90;;;;;;5014359;28;20049;-67
2021/05/17 09:07:44;;;;;;;2.38;0.60;;;12.40;99.90;;;;;;5011478;28;20509;-67
2021/05/17 09:10:17;;;;;;;1.05;0.47;;;12.80;99.90;;;;;;5015260;28;20053;-67
2021/05/17 09:13:03;;;;;;;5.55;1.05;;;13.50;99.90;;;;;;5011657;28;20060;-67
2021/05/17 09:15:32;;;;;;;2.50;0.50;;;14.00;99.90;;;;;;5014737;28;20612;-67
2021/05/17 09:18:00;;;;;;;1.02;0.57;;;14.00;99.90;;;;;;5014009;28;20057;-68
2021/05/17 09:20:34;;;;;;;0.43;0.40;;;14.10;99.90;;;;;;5017072;28;20077;-67
2021/05/17 09:23:16;;;;;;;1.75;0.40;;;13.80;99.90;;;;;;5015595;28;20053;-67
2021/05/17 09:25:58;;;;;;;0.95;0.40;;;13.60;99.90;;;;;;5016260;28;20132;-67
2021/05/17 09:28:26;;;;;;;0.10;0.10;;;13.10;99.90;;;;;;5013838;28;20084;-67
2021/05/17 09:30:54;;;;;;;1.40;0.60;;;13.20;99.90;;;;;;5013137;28;20111;-67
2021/05/17 09:33:22;;;;;;;0.30;0.20;;;13.10;99.90;;;;;;5014454;28;20063;-68
2021/05/17 09:35:50;;;;;;;1.55;0.50;;;12.70;99.90;;;;;;5012805;28;20231;-67
2021/05/17 09:38:21;;;;;;;0.50;0.30;;;12.60;99.90;;;;;;5013593;28;20053;-67
2021/05/17 09:40:59;;;;;;;0.95;0.35;;;12.50;99.90;;;;;;5014980;28;20372;-66
2021/05/17 09:43:27;;;;;;;2.10;0.50;;;12.20;99.90;;;;;;5010463;28;20054;-67
2021/05/17 09:45:53;;;;;;;3.30;0.40;;;11.80;99.90;;;;;;5012585;28;20103;-67
2021/05/17 09:48:21;;;;;;;1.60;0.50;;;11.50;99.90;;;;;;5011362;28;20382;-67
2021/05/17 09:51:02;;;;;;;1.33;0.70;;;11.40;99.90;;;;;;5013551;28;20137;-67
2021/05/17 09:53:30;;;;;;;2.05;0.80;;;11.60;99.90;;;;;;5012945;28;20049;-67
2021/05/17 09:55:57;;;;;;;2.83;0.60;;;11.80;99.90;;;;;;5015390;28;20115;-67
2021/05/17 09:58:30;;;;;;;2.72;0.60;;;12.20;99.90;;;;;;5013950;28;20084;-67
2021/05/17 10:01:08;;;;;;;1.05;0.45;;;12.00;99.90;;;;;;5012597;28;20092;-67
2021/05/17 10:03:37;;;;;;;3.45;0.80;;;11.80;99.90;;;;;;5014533;28;20469;-67
2021/05/17 10:06:04;;;;;;;3.17;1.02;;;11.80;99.90;;;;;;5017468;28;20102;-67
2021/05/17 10:08:31;;;;;;;1.55;0.60;;;11.90;99.90;;;;;;5015027;28;20068;-66
2021/05/17 10:10:57;;;;;;;2.72;0.73;;;11.70;99.90;;;;;;5016270;28;20530;-67
2021/05/17 10:13:24;;;;;;;1.52;0.85;;;11.60;99.90;;;;;;5015261;28;20131;-67
2021/05/17 10:15:52;;;;;;;3.55;1.35;;;11.60;99.90;;;;;;5015798;28;20084;-67
2021/05/17 10:18:19;;;;;;;3.65;0.68;;;11.60;99.90;;;;;;5017174;28;20049;-66
2021/05/17 10:20:46;;;;;;;1.48;0.82;;;11.20;99.90;;;;;;5016276;28;20087;-67
2021/05/17 10:23:13;;;;;;;5.45;0.80;;;11.30;99.90;;;;;;5017733;28;20045;-66
2021/05/17 10:25:41;;;;;;;1.65;0.60;;;11.50;99.90;;;;;;5018681;28;20472;-66
2021/05/17 10:28:11;;;;;;;1.95;0.57;;;11.60;99.90;;;;;;5015979;28;20053;-66
2021/05/17 10:30:38;;;;;;;1.17;0.70;;;11.80;99.90;;;;;;5015442;28;20107;-66
2021/05/17 10:33:07;;;;;;;7.82;1.10;;;11.90;99.90;;;;;;5014842;28;20068;-67
2021/05/17 10:35:35;;;;;;;1.88;1.05;;;11.80;99.90;;;;;;5014230;28;21135;-66
2021/05/17 10:38:22;;;;;;;4.65;0.98;;;11.90;99.90;;;;;;5015089;28;20049;-67
2021/05/17 10:40:51;;;;;;;3.23;1.10;;;12.00;99.90;;;;;;5017011;28;20113;-66
2021/05/17 10:43:52;;;;;;;2.67;1.23;;;12.30;99.90;;;;;;5015021;28;20240;-67
2021/05/17 10:46:40;;;;;;;4.32;0.90;;;13.10;99.90;;;;;;5017080;28;20065;-67
2021/05/17 10:49:28;;;;;;;3.05;1.00;;;14.10;99.90;;;;;;5015310;28;20099;-67
2021/05/17 10:52:16;;;;;;;1.70;0.90;;;15.20;99.90;;;;;;5017578;28;20079;-68
2021/05/17 10:54:43;;;;;;;4.05;1.00;;;15.50;99.90;;;;;;5016693;28;20140;-67
2021/05/17 10:57:18;;;;;;;4.80;1.30;;;15.30;99.90;;;;;;5013987;28;20538;-68
2021/05/17 11:02:33;;;;;;;2.23;1.13;;;14.80;99.90;;;;;;5013524;28;20075;-68
2021/05/17 11:05:03;;;;;;;3.88;1.08;;;15.30;99.90;;;;;;5013733;28;20346;-68
2021/05/17 11:07:32;;;;;;;7.93;1.63;;;15.50;99.90;;;;;;5012402;28;20049;-68
2021/05/17 11:10:11;;;;;;;4.03;1.25;;;15.00;99.90;;;;;;5012686;28;20409;-68
2021/05/17 11:13:05;;;;;;;1.98;0.82;;;15.10;99.90;;;;;;5010768;28;20084;-68
2021/05/17 11:15:53;;;;;;;1.67;0.90;;;16.30;99.90;;;;;;5006015;28;20044;-68
2021/05/17 11:18:47;;;;;;;3.30;1.20;;;16.80;99.90;;;;;;5011852;28;20489;-68
2021/05/17 11:21:22;;;;;;;2.53;0.95;;;17.10;99.90;;;;;;5014016;28;20088;-68
2021/05/17 11:23:57;;;;;;;2.75;0.88;;;17.10;99.90;;;;;;5016311;28;20770;-68
2021/05/17 11:26:25;;;;;;;3.60;0.73;;;16.40;99.90;;;;;;5017228;28;20138;-68
2021/05/17 11:29:06;;;;;;;3.15;1.17;;;15.70;99.90;;;;;;5014921;28;20041;-68
2021/05/17 11:31:40;;;;;;;4.50;0.90;;;15.70;99.90;;;;;;5014078;28;20780;-68
2021/05/17 11:34:16;;;;;;;4.47;1.02;;;15.80;99.90;;;;;;5014970;28;20513;-68
2021/05/17 11:36:47;;;;;;;3.80;0.98;;;15.70;99.90;;;;;;5015725;28;20093;-67
2021/05/17 11:39:19;;;;;;;16.35;2.95;;;15.60;99.90;;;;;;5015061;28;20099;-68
2021/05/17 11:41:48;;;;;;;4.15;1.25;;;15.40;99.90;;;;;;5014979;28;20494;-66
2021/05/17 11:44:17;;;;;;;5.70;1.02;;;14.30;99.90;;;;;;5017635;28;20059;-66
2021/05/17 11:46:47;;;;;;;4.80;0.90;;;13.50;99.90;;;;;;5016703;28;20161;-66
2021/05/17 11:49:15;;;;;;;7.70;1.20;;;12.70;99.90;;;;;;5016168;28;20501;-66
2021/05/17 11:51:46;;;;;;;6.43;1.15;;;12.40;99.90;;;;;;5014163;28;20053;-66
2021/05/17 11:54:12;;;;;;;5.50;1.00;;;12.20;99.90;;;;;;5017153;28;20107;-66
2021/05/17 11:56:40;;;;;;;7.35;1.00;;;12.10;99.90;;;;;;5014877;28;20092;-64
2021/05/17 11:59:09;;;;;;;4.13;0.70;;;11.80;99.90;;;;;;5016470;28;20099;-65
2021/05/17 12:01:37;;;;;;;3.90;0.90;;;12.10;99.90;;;;;;5015225;28;20385;-67
2021/05/17 12:04:17;;;;;;;3.33;1.08;;;13.10;99.90;;;;;;5014834;28;20074;-66
2021/05/17 12:06:48;;;;;;;2.90;0.90;;;13.80;99.90;;;;;;5011467;28;20521;-66
2021/05/17 12:09:30;;;;;;;4.22;1.17;;;14.20;99.90;;;;;;5009045;28;20470;-67
2021/05/17 12:11:57;;;;;;;4.32;1.05;;;14.40;99.90;;;;;;4996759;28;20178;-67
2021/05/17 12:14:24;;;;;;;2.75;1.02;;;14.80;99.90;;;;;;5001733;28;20174;-67
2021/05/17 12:17:08;;;;;;;1.73;0.90;;;15.40;99.90;;;;;;5010100;28;20041;-67
2021/05/17 12:19:35;;;;;;;2.63;1.30;;;15.70;99.90;;;;;;5011632;28;20114;-67
2021/05/17 12:22:07;;;;;;;2.80;0.93;;;15.40;99.90;;;;;;5010563;28;20084;-68
2021/05/17 12:24:34;;;;;;;3.05;0.77;;;15.30;99.90;;;;;;5009288;28;20421;-67
2021/05/17 12:27:02;;;;;;;3.30;0.70;;;15.20;99.90;;;;;;5009682;28;20091;-67
2021/05/17 12:29:47;;;;;;;3.42;0.95;;;15.10;99.90;;;;;;5010786;28;20068;-67
2021/05/17 12:32:14;;;;;;;3.08;0.90;;;15.30;99.90;;;;;;5012483;28;20160;-67
2021/05/17 12:34:51;;;;;;;3.47;0.80;;;15.40;99.90;;;;;;5010362;28;20695;-67
2021/05/17 12:37:18;;;;;;;1.67;0.77;;;15.20;99.90;;;;;;5010035;28;20471;-67
2021/05/17 12:39:45;;;;;;;0.60;0.47;;;15.70;99.90;;;;;;5008415;28;20046;-67
2021/05/17 12:42:15;;;;;;;2.08;0.80;;;15.60;99.90;;;;;;5010405;28;20056;-67
2021/05/17 12:44:42;;;;;;;3.65;1.17;;;16.20;99.90;;;;;;5012783;28;20057;-67
2021/05/17 12:47:11;;;;;;;1.15;0.50;;;16.80;99.90;;;;;;5013127;28;20057;-69
2021/05/17 12:49:51;;;;;;;2.17;0.60;;;17.20;99.90;;;;;;5009192;28;20076;-67
2021/05/17 12:52:32;;;;;;;2.45;0.82;;;17.30;99.90;;;;;;5005367;28;20354;-67
2021/05/17 12:55:24;;;;;;;5.03;0.70;;;17.70;99.90;;;;;;4995450;28;20080;-67
2021/05/17 12:57:55;;;;;;;2.08;0.50;;;17.60;99.90;;;;;;4983161;28;20156;-67
2021/05/17 13:00:46;;;;;;;2.15;0.57;;;16.90;99.90;;;;;;4996719;28;20095;-67
2021/05/17 13:03:15;;;;;;;1.85;0.43;;;16.60;99.90;;;;;;4996733;28;20171;-68
2021/05/17 13:06:06;;;;;;;3.17;0.60;;;16.80;99.90;;;;;;5001228;28;20529;-67
2021/05/17 13:09:02;;;;;;;2.05;0.50;;;17.00;99.90;;;;;;5000617;28;20872;-67
2021/05/17 13:11:31;;;;;;;0.85;0.30;;;16.20;99.90;;;;;;5012820;28;20576;-67
2021/05/17 13:14:00;;;;;;;2.60;0.60;;;16.20;99.90;;;;;;5013822;28;20457;-67
2021/05/17 13:16:30;;;;;;;2.58;0.55;;;16.40;99.90;;;;;;5012345;28;20045;-67
2021/05/17 13:19:22;;;;;;;1.30;0.43;;;16.50;99.90;;;;;;5012284;28;20296;-67